Time;durP1;ratioP1;P1;durP2;ratioP2;P2;SDS_P1;SDS_P2;PMS_P1;PMS_P2;Temp;Humidity;BMP_temperature;BMP_pressure;BME280_temperature;BME280_humidity;BME280_pressure;Samples;Min_cycle;Max_cycle;Signal;HPM_P1;HPM_P2
2022/05/28 00:00:52;;;;;;;2.03;0.98;;;;;;;10.25;64.97;102129.06;6216126;23;20000;-83
2022/05/28 00:03:18;;;;;;;1.50;0.85;;;;;;;10.23;63.92;102128.19;6215075;23;20001;-82
2022/05/28 00:05:43;;;;;;;1.60;1.10;;;;;;;10.22;64.91;102121.28;6215590;23;20008;-82
2022/05/28 00:08:09;;;;;;;1.57;0.90;;;;;;;10.19;64.30;102118.66;6215654;23;20063;-82
2022/05/28 00:10:34;;;;;;;0.87;0.77;;;;;;;10.19;64.43;102116.91;6215000;23;20012;-82
2022/05/28 00:12:59;;;;;;;1.37;0.83;;;;;;;10.17;65.26;102110.88;6215037;23;20082;-82
2022/05/28 00:15:25;;;;;;;1.10;0.87;;;;;;;10.17;65.15;102117.75;6215829;23;20066;-82
2022/05/28 00:17:50;;;;;;;1.27;0.60;;;;;;;10.17;64.67;102112.56;6214324;23;20015;-82
2022/05/28 00:20:16;;;;;;;1.83;1.00;;;;;;;10.16;65.06;102108.25;6215788;23;20004;-82
2022/05/28 00:22:43;;;;;;;3.40;1.47;;;;;;;10.18;66.27;102101.34;6214694;23;20325;-83
2022/05/28 00:25:10;;;;;;;1.92;1.15;;;;;;;10.14;65.96;102102.16;6215781;23;20005;-82
2022/05/28 00:27:37;;;;;;;2.65;1.25;;;;;;;10.15;66.09;102107.38;6215008;23;20063;-82
2022/05/28 00:30:06;;;;;;;2.30;1.27;;;;;;;10.16;65.62;102103.94;6214211;23;20391;-82
2022/05/28 00:32:31;;;;;;;2.53;1.48;;;;;;;10.15;67.81;102099.59;6215677;23;20030;-82
2022/05/28 00:34:56;;;;;;;2.00;1.20;;;;;;;10.16;68.05;102100.47;6215343;23;20107;-82
2022/05/28 00:37:22;;;;;;;3.30;1.60;;;;;;;10.15;66.35;102098.72;6214840;23;20009;-82
2022/05/28 00:39:48;;;;;;;2.95;1.30;;;;;;;10.14;67.62;102103.06;6214573;23;20414;-83
2022/05/28 00:42:13;;;;;;;3.93;1.37;;;;;;;10.14;68.72;102102.16;6215315;23;20058;-82
2022/05/28 00:44:38;;;;;;;2.33;1.50;;;;;;;10.14;67.39;102094.38;6212669;23;20009;-82
2022/05/28 00:47:04;;;;;;;6.07;1.90;;;;;;;10.13;68.14;102103.06;6215578;23;20000;-82
2022/05/28 00:49:32;;;;;;;3.63;1.80;;;;;;;10.14;68.20;102102.16;6215035;23;20013;-82
2022/05/28 00:52:00;;;;;;;3.20;1.88;;;;;;;10.15;67.48;102101.31;6213994;23;20739;-82
2022/05/28 00:54:30;;;;;;;1.33;1.20;;;;;;;10.16;67.04;102100.47;6215573;23;20326;-82
2022/05/28 00:56:56;;;;;;;1.88;1.20;;;;;;;10.18;66.80;102088.38;6214885;23;20071;-82
2022/05/28 00:59:22;;;;;;;2.57;1.60;;;;;;;10.18;67.46;102099.63;6214568;23;20008;-82
2022/05/28 01:01:48;;;;;;;1.33;1.20;;;;;;;10.17;68.52;102092.69;6215216;23;20066;-82
2022/05/28 01:04:34;;;;;;;0.90;0.90;;;;;;;10.18;66.37;102090.97;6215449;23;20008;-82
2022/05/28 01:07:37;;;;;;;1.73;0.90;;;;;;;10.19;66.83;102097.88;6214217;23;20000;-83
2022/05/28 01:10:21;;;;;;;1.02;0.90;;;;;;;10.15;67.20;102091.81;6214980;23;20008;-82
2022/05/28 01:13:03;;;;;;;2.38;1.05;;;;;;;10.14;67.21;102087.50;6214423;23;20031;-82
2022/05/28 01:15:32;;;;;;;1.17;1.05;;;;;;;10.11;67.81;102089.19;6215433;23;20008;-82
2022/05/28 01:18:06;;;;;;;1.90;1.05;;;;;;;10.07;68.42;102079.66;6215079;23;20005;-82
2022/05/28 01:20:37;;;;;;;2.17;0.90;;;;;;;10.03;67.44;102079.63;6214506;23;20051;-82
2022/05/28 01:23:36;;;;;;;1.08;0.98;;;;;;;10.01;67.24;102083.06;6215597;23;20004;-82
2022/05/28 01:26:04;;;;;;;4.47;1.55;;;;;;;9.98;68.62;102072.66;6214492;23;20039;-81
2022/05/28 01:28:34;;;;;;;2.60;1.30;;;;;;;9.94;67.71;102074.38;6215306;23;20027;-82
2022/05/28 01:31:02;;;;;;;1.40;1.30;;;;;;;9.94;69.77;102076.97;6214479;23;20009;-82
2022/05/28 01:33:29;;;;;;;1.30;1.00;;;;;;;9.91;69.26;102078.69;6214679;23;20131;-82
2022/05/28 01:35:56;;;;;;;1.20;1.10;;;;;;;9.89;67.68;102079.53;6214822;23;20040;-82
2022/05/28 01:38:23;;;;;;;2.58;1.10;;;;;;;9.89;68.10;102076.94;6215600;23;20036;-82
2022/05/28 01:40:49;;;;;;;1.38;1.00;;;;;;;9.88;68.25;102079.53;6216176;23;20076;-82
2022/05/28 01:43:17;;;;;;;1.47;1.10;;;;;;;9.85;68.77;102075.16;6216411;23;20495;-82
2022/05/28 01:45:44;;;;;;;1.10;0.88;;;;;;;9.85;69.07;102069.13;6216557;23;20008;-82
2022/05/28 01:48:14;;;;;;;1.38;1.13;;;;;;;9.84;68.73;102067.38;6216566;23;20035;-82
2022/05/28 01:50:43;;;;;;;0.70;0.70;;;;;;;9.83;68.85;102070.84;6216509;23;20039;-82
2022/05/28 01:53:11;;;;;;;1.35;0.65;;;;;;;9.80;68.58;102070.81;6217345;23;20005;-82
2022/05/28 01:55:44;;;;;;;1.20;1.10;;;;;;;9.78;69.21;102072.53;6218461;23;20000;-82
2022/05/28 01:58:09;;;;;;;2.50;0.80;;;;;;;9.74;68.26;102072.50;6220987;23;20001;-82
2022/05/28 02:00:37;;;;;;;2.23;1.57;;;;;;;9.73;69.81;102075.09;6218907;23;20023;-82
2022/05/28 02:03:05;;;;;;;1.65;1.30;;;;;;;9.69;69.13;102074.19;6217361;23;20008;-82
2022/05/28 02:05:30;;;;;;;2.20;1.27;;;;;;;9.71;68.72;102074.22;6217466;23;20035;-82
2022/05/28 02:07:55;;;;;;;2.67;1.20;;;;;;;9.70;70.98;102067.28;6216745;23;20012;-82
2022/05/28 02:10:22;;;;;;;2.87;1.30;;;;;;;9.66;68.99;102084.53;6216434;23;20012;-82
2022/05/28 02:12:50;;;;;;;;;;;;;;;9.65;69.90;102072.44;6217479;23;20011;-82
2022/05/28 02:15:27;;;;;;;2.25;1.40;;;;;;;9.63;67.86;102084.50;6215444;23;19982;-82
2022/05/28 02:18:40;;;;;;;2.25;1.13;;;;;;;9.64;68.58;102081.06;6216685;23;20032;-82
2022/05/28 02:21:31;;;;;;;1.30;1.20;;;;;;;9.61;69.06;102077.59;6217060;23;20087;-82
2022/05/28 02:24:07;;;;;;;1.30;1.17;;;;;;;9.59;68.82;102074.97;6201500;23;20015;-82
2022/05/28 02:26:43;;;;;;;1.42;1.33;;;;;;;9.53;69.68;102069.75;6217108;23;20026;-82
2022/05/28 02:29:09;;;;;;;0.98;0.98;;;;;;;9.49;68.67;102065.38;6216570;23;20100;-82
2022/05/28 02:31:35;;;;;;;1.17;1.08;;;;;;;9.47;68.82;102069.66;6215576;23;20410;-82
2022/05/28 02:34:01;;;;;;;0.80;0.80;;;;;;;9.47;69.22;102067.97;6216915;23;20008;-82
2022/05/28 02:36:35;;;;;;;2.03;1.00;;;;;;;9.47;70.11;102074.84;6216130;23;20402;-82
2022/05/28 02:39:00;;;;;;;1.17;1.08;;;;;;;9.45;68.98;102074.84;6216766;23;20373;-82
2022/05/28 02:41:26;;;;;;;1.10;1.00;;;;;;;9.42;69.09;102067.91;6217733;23;20009;-82
2022/05/28 02:43:52;;;;;;;1.07;0.97;;;;;;;9.39;68.78;102070.47;6216731;23;20015;-82
2022/05/28 02:46:18;;;;;;;1.20;1.00;;;;;;;9.37;68.63;102061.81;6216954;23;20000;-82
2022/05/28 02:48:45;;;;;;;1.07;0.87;;;;;;;9.37;68.74;102051.44;6217118;23;20073;-82
2022/05/28 02:51:13;;;;;;;1.02;0.93;;;;;;;9.38;68.63;102052.34;6215274;23;20423;-82
2022/05/28 02:53:39;;;;;;;1.20;1.10;;;;;;;9.33;68.65;102047.13;6216440;23;20084;-82
2022/05/28 02:56:06;;;;;;;1.17;1.00;;;;;;;9.32;69.41;102050.56;6216452;23;20047;-82
2022/05/28 02:58:31;;;;;;;1.27;1.10;;;;;;;9.30;70.53;102048.78;6215799;23;20088;-82
2022/05/28 03:00:56;;;;;;;1.00;1.00;;;;;;;9.25;69.23;102041.84;6216520;23;20036;-82
2022/05/28 03:03:22;;;;;;;1.50;1.10;;;;;;;9.24;69.87;102047.00;6216403;23;20028;-82
2022/05/28 03:05:51;;;;;;;0.87;0.87;;;;;;;9.20;69.34;102043.53;6215458;23;20009;-82
2022/05/28 03:08:18;;;;;;;1.75;0.90;;;;;;;9.20;70.17;102053.03;6216271;23;20548;-82
2022/05/28 03:10:44;;;;;;;0.80;0.80;;;;;;;9.20;69.41;102053.03;6215731;23;20016;-82
2022/05/28 03:13:09;;;;;;;0.97;0.97;;;;;;;9.19;69.54;102046.09;6215568;23;20012;-82
2022/05/28 03:15:35;;;;;;;2.33;0.93;;;;;;;9.18;70.08;102045.22;6216186;23;20015;-82
2022/05/28 03:18:01;;;;;;;1.13;0.93;;;;;;;9.16;70.38;102049.53;6215583;23;20000;-82
2022/05/28 03:20:27;;;;;;;1.40;1.02;;;;;;;9.14;69.56;102053.84;6215707;23;20051;-82
2022/05/28 03:22:53;;;;;;;0.85;0.82;;;;;;;9.13;69.74;102062.44;6215936;23;20036;-82
2022/05/28 03:25:18;;;;;;;1.67;1.08;;;;;;;9.11;70.16;102057.28;6216456;23;20011;-82
2022/05/28 03:27:44;;;;;;;2.20;1.10;;;;;;;9.09;70.48;102053.78;6213661;23;20070;-82
2022/05/28 03:30:10;;;;;;;1.13;1.03;;;;;;;9.07;69.74;102055.50;6215671;23;20401;-82
2022/05/28 03:32:35;;;;;;;1.20;1.10;;;;;;;9.05;69.96;102054.59;6215141;23;20088;-82
2022/05/28 03:35:00;;;;;;;1.88;1.10;;;;;;;9.05;71.51;102058.94;6215630;23;20005;-82
2022/05/28 03:37:25;;;;;;;1.60;0.85;;;;;;;9.05;70.46;102057.19;6216392;23;20406;-82
2022/05/28 03:39:51;;;;;;;1.40;1.07;;;;;;;9.05;70.08;102057.19;6214870;23;20004;-82
2022/05/28 03:42:16;;;;;;;0.70;0.70;;;;;;;9.05;70.33;102058.94;6215939;23;19997;-82
2022/05/28 03:44:41;;;;;;;2.43;1.00;;;;;;;9.02;69.80;102064.91;6216187;23;20004;-82
2022/05/28 03:47:07;;;;;;;1.02;0.93;;;;;;;8.99;69.99;102062.31;6215987;23;20063;-82
2022/05/28 03:49:37;;;;;;;2.17;1.10;;;;;;;9.00;70.17;102070.94;6216508;23;20065;-82
2022/05/28 03:52:03;;;;;;;0.95;0.95;;;;;;;8.96;70.58;102078.66;6216229;23;20373;-82
2022/05/28 03:54:29;;;;;;;1.43;1.30;;;;;;;8.95;69.86;102076.06;6214713;23;20004;-82
2022/05/28 03:57:01;;;;;;;2.77;1.40;;;;;;;8.95;69.80;102076.91;6216160;23;20000;-82
2022/05/28 03:59:27;;;;;;;1.23;1.00;;;;;;;8.97;70.36;102076.97;6217020;23;20321;-82
2022/05/28 04:01:53;;;;;;;1.40;1.23;;;;;;;8.94;70.24;102072.63;6214788;23;20146;-82
2022/05/28 04:04:19;;;;;;;1.90;1.20;;;;;;;8.94;69.91;102072.63;6215971;23;20058;-82
2022/05/28 04:06:44;;;;;;;1.47;1.20;;;;;;;8.95;71.27;102074.34;6215801;23;20027;-82
2022/05/28 04:09:10;;;;;;;1.23;1.13;;;;;;;8.94;70.19;102072.63;6215802;23;20377;-82
2022/05/28 04:11:38;;;;;;;2.00;1.30;;;;;;;8.92;70.06;102073.44;6216196;23;20414;-82
2022/05/28 04:14:04;;;;;;;1.95;1.15;;;;;;;8.94;70.85;102077.81;6215868;23;20058;-82
2022/05/28 04:16:29;;;;;;;1.08;0.98;;;;;;;8.93;70.83;102075.19;6215489;23;20091;-82
2022/05/28 04:18:55;;;;;;;1.57;1.23;;;;;;;8.95;72.50;102073.47;6216273;23;20358;-82
2022/05/28 04:21:20;;;;;;;1.57;1.13;;;;;;;8.94;71.53;102079.50;6216185;23;20031;-82
2022/05/28 04:23:45;;;;;;;1.63;0.90;;;;;;;8.94;71.60;102079.50;6214664;23;20318;-81
2022/05/28 04:26:11;;;;;;;1.57;0.80;;;;;;;8.95;71.33;102081.25;6216283;23;20083;-82
2022/05/28 04:28:36;;;;;;;1.03;0.87;;;;;;;8.95;71.40;102081.25;6217918;23;20020;-82
2022/05/28 04:31:02;;;;;;;1.20;1.00;;;;;;;8.99;72.33;102097.69;6218324;23;20012;-82
2022/05/28 04:33:27;;;;;;;0.83;0.83;;;;;;;9.00;71.87;102094.25;6216363;23;20007;-82
2022/05/28 04:35:53;;;;;;;0.87;0.87;;;;;;;9.01;71.62;102089.06;6214682;23;20004;-82
2022/05/28 04:38:18;;;;;;;1.47;1.00;;;;;;;9.05;71.51;102088.25;6215876;23;20347;-82
2022/05/28 04:40:43;;;;;;;1.13;1.02;;;;;;;9.12;71.36;102096.97;6215412;23;20004;-82
2022/05/28 04:43:09;;;;;;;1.03;0.80;;;;;;;9.18;72.05;102098.75;6215034;23;20005;-82
2022/05/28 04:45:39;;;;;;;1.02;0.98;;;;;;;9.21;71.57;102091.88;6215863;23;19999;-82
2022/05/28 04:48:05;;;;;;;0.80;0.73;;;;;;;9.29;71.46;102094.56;6215349;23;20130;-82
2022/05/28 04:50:30;;;;;;;1.27;1.17;;;;;;;9.35;72.52;102096.34;6215062;23;20041;-82
2022/05/28 04:52:58;;;;;;;6.47;1.67;;;;;;;9.39;72.42;102088.63;6215700;23;20008;-82
2022/05/28 04:55:24;;;;;;;3.65;1.25;;;;;;;9.45;74.08;102094.72;6215045;23;20414;-82
2022/05/28 04:57:52;;;;;;;2.10;1.20;;;;;;;9.50;73.68;102095.63;6214487;23;20003;-82
2022/05/28 05:00:21;;;;;;;1.50;1.05;;;;;;;9.54;74.48;102095.66;6215686;23;20090;-82
2022/05/28 05:02:46;;;;;;;0.85;0.80;;;;;;;9.60;74.11;102110.41;6214646;23;20007;-82
2022/05/28 05:05:11;;;;;;;1.40;0.87;;;;;;;9.64;72.99;102096.63;6214245;23;20002;-82
2022/05/28 05:07:37;;;;;;;0.70;0.53;;;;;;;9.71;73.57;102102.72;6215510;23;20008;-82
2022/05/28 05:10:03;;;;;;;0.90;0.60;;;;;;;9.76;73.21;102105.34;6215630;23;20052;-82
2022/05/28 05:12:29;;;;;;;0.50;0.38;;;;;;;9.82;73.05;102108.00;6214171;23;20004;-82
2022/05/28 05:14:54;;;;;;;2.47;0.70;;;;;;;9.88;76.76;102105.47;6215293;23;20016;-82
2022/05/28 05:17:19;;;;;;;1.17;0.60;;;;;;;9.94;74.76;102105.50;6216151;23;20062;-83
2022/05/28 05:19:45;;;;;;;0.97;0.87;;;;;;;10.01;74.70;102101.22;6214244;23;20086;-83
2022/05/28 05:22:10;;;;;;;0.90;0.77;;;;;;;10.06;73.87;102109.91;6215839;23;20001;-81
2022/05/28 05:24:35;;;;;;;0.50;0.50;;;;;;;10.14;74.92;102115.13;6215568;23;20075;-82
2022/05/28 05:27:01;;;;;;;1.60;0.77;;;;;;;10.22;77.09;102110.88;6214210;23;20009;-83
2022/05/28 05:29:27;;;;;;;3.20;1.08;;;;;;;10.31;76.99;102107.47;6215601;23;20016;-83
2022/05/28 05:31:52;;;;;;;4.27;1.50;;;;;;;10.42;76.92;102112.75;6213382;23;20055;-82
2022/05/28 05:34:18;;;;;;;11.40;2.00;;;;;;;10.56;77.28;102113.72;6214508;23;19996;-84
2022/05/28 05:36:43;;;;;;;6.23;1.50;;;;;;;10.70;75.93;102115.50;6215349;23;20031;-84
2022/05/28 05:39:08;;;;;;;4.60;1.40;;;;;;;10.79;75.54;102115.56;6214737;23;20004;-83
2022/05/28 05:41:40;;;;;;;3.60;1.43;;;;;;;10.86;75.81;102119.06;6215798;23;20032;-84
2022/05/28 05:44:06;;;;;;;5.55;1.85;;;;;;;10.96;73.23;102126.88;6215204;23;20087;-83
2022/05/28 05:46:31;;;;;;;8.00;1.80;;;;;;;11.05;73.80;102114.75;6214549;23;20036;-85
2022/05/28 05:48:57;;;;;;;10.07;1.70;;;;;;;11.09;72.48;102130.34;6214382;23;20059;-81
2022/05/28 05:51:22;;;;;;;10.03;2.10;;;;;;;11.16;71.95;102123.47;6215340;23;20028;-84
2022/05/28 05:53:47;;;;;;;7.63;1.80;;;;;;;11.20;72.51;102126.97;6213762;23;20084;-83
2022/05/28 05:56:12;;;;;;;7.53;1.90;;;;;;;11.24;72.62;102126.09;6215311;23;20011;-82
2022/05/28 05:58:38;;;;;;;7.70;1.80;;;;;;;11.29;72.65;102124.38;6214452;23;20366;-83
2022/05/28 06:01:05;;;;;;;6.87;1.73;;;;;;;11.35;72.35;102137.38;6214248;23;20009;-83
2022/05/28 06:03:31;;;;;;;3.30;1.08;;;;;;;11.39;72.25;102122.66;6214785;23;20001;-83
2022/05/28 06:05:58;;;;;;;6.10;1.65;;;;;;;11.44;71.39;102133.94;6214190;23;20528;-83
2022/05/28 06:08:23;;;;;;;;;;;;;;;11.51;70.10;102125.25;6214664;23;20036;-83
2022/05/28 06:10:48;;;;;;;4.60;1.47;;;;;;;11.94;70.14;102120.94;6214852;23;19912;-84
2022/05/28 06:13:13;;;;;;;7.53;1.73;;;;;;;12.18;68.87;102136.56;6215394;23;20032;-83
2022/05/28 06:15:39;;;;;;;5.40;1.47;;;;;;;12.29;68.26;102131.38;6213473;23;20005;-83
2022/05/28 06:18:07;;;;;;;5.13;1.50;;;;;;;12.46;67.50;102133.03;6215215;23;20004;-83
2022/05/28 06:20:32;;;;;;;8.35;1.65;;;;;;;12.89;64.54;102139.84;6215028;23;20383;-83
2022/05/28 06:22:57;;;;;;;5.83;1.60;;;;;;;13.04;63.29;102137.19;6213796;23;20032;-85
2022/05/28 06:25:23;;;;;;;6.03;1.50;;;;;;;13.00;63.73;102142.44;6215425;23;20015;-83
2022/05/28 06:27:48;;;;;;;3.73;1.20;;;;;;;13.10;64.89;102136.31;6216598;23;20005;-86
2022/05/28 06:30:14;;;;;;;3.57;1.10;;;;;;;13.38;62.90;102144.84;6215767;23;20017;-83
2022/05/28 06:32:39;;;;;;;2.43;1.10;;;;;;;13.62;61.73;102139.47;6217471;23;20016;-83
2022/05/28 06:35:05;;;;;;;5.90;1.50;;;;;;;13.94;59.27;102140.97;6217201;23;20374;-84
2022/05/28 06:37:30;;;;;;;9.43;2.00;;;;;;;13.94;57.71;102148.78;6216038;23;20019;-83
2022/05/28 06:39:58;;;;;;;7.80;1.50;;;;;;;13.86;58.66;102147.13;6216696;23;20004;-83
2022/05/28 06:42:23;;;;;;;7.13;1.70;;;;;;;13.91;57.04;102139.25;6217332;23;20015;-83
2022/05/28 06:44:49;;;;;;;3.47;1.17;;;;;;;14.21;57.97;102147.69;6216038;23;20008;-83
2022/05/28 06:47:14;;;;;;;7.20;1.70;;;;;;;14.41;53.95;102155.31;6217524;23;20000;-84
2022/05/28 06:49:42;;;;;;;5.80;1.67;;;;;;;13.92;55.39;102154.03;6215295;23;20357;-84
2022/05/28 06:52:08;;;;;;;6.38;1.73;;;;;;;13.65;57.00;102152.50;6217448;23;19997;-84
2022/05/28 06:54:33;;;;;;;4.23;1.57;;;;;;;13.65;58.65;102155.13;6218197;23;20440;-84
2022/05/28 06:56:58;;;;;;;4.93;1.30;;;;;;;13.83;58.18;102154.13;6214903;23;20028;-86
2022/05/28 06:59:24;;;;;;;5.73;1.80;;;;;;;13.63;56.15;102160.31;6216525;23;20005;-83
2022/05/28 07:01:49;;;;;;;4.57;1.53;;;;;;;13.24;56.08;102159.69;6217093;23;20016;-83
2022/05/28 07:04:14;;;;;;;4.23;1.53;;;;;;;13.23;57.06;102161.41;6215353;23;20058;-82
2022/05/28 07:06:39;;;;;;;4.07;1.50;;;;;;;13.11;56.39;102164.94;6216286;23;20000;-83
2022/05/28 07:09:07;;;;;;;4.93;1.70;;;;;;;13.04;57.98;102170.19;6216491;23;20340;-83
2022/05/28 07:11:33;;;;;;;5.60;1.70;;;;;;;12.82;58.29;102167.69;6215536;23;20142;-83
2022/05/28 07:13:58;;;;;;;7.10;1.70;;;;;;;12.62;57.95;102167.72;6215946;23;20088;-83
2022/05/28 07:16:26;;;;;;;6.57;1.70;;;;;;;12.73;60.01;102159.91;6216450;23;19992;-83
2022/05/28 07:18:52;;;;;;;4.50;1.42;;;;;;;12.97;59.30;102169.34;6215105;23;20087;-84
2022/05/28 07:21:17;;;;;;;4.17;1.70;;;;;;;13.18;58.45;102163.19;6216173;23;20028;-82
2022/05/28 07:23:42;;;;;;;5.43;1.63;;;;;;;13.23;58.29;102158.78;6215732;23;20054;-82
2022/05/28 07:26:11;;;;;;;4.97;1.70;;;;;;;13.51;57.94;102169.13;6215557;23;20441;-83
2022/05/28 07:28:38;;;;;;;5.57;1.48;;;;;;;13.68;58.18;102171.59;6216010;23;20004;-86
2022/05/28 07:31:09;;;;;;;3.13;1.50;;;;;;;13.84;57.22;102164.53;6215843;23;20096;-84
2022/05/28 07:33:37;;;;;;;5.38;1.50;;;;;;;14.03;55.23;102165.25;6215543;23;20012;-84
2022/05/28 07:36:04;;;;;;;5.28;1.63;;;;;;;14.03;52.43;102166.97;6215594;23;20411;-86
2022/05/28 07:38:29;;;;;;;;;;;;;;;14.05;55.03;102163.50;6216365;23;20430;-84
2022/05/28 07:40:55;;;;;;;5.30;1.45;;;;;;;14.15;52.20;102168.63;6215311;23;19911;-83
2022/05/28 07:43:21;;;;;;;6.10;1.50;;;;;;;14.21;53.42;102153.78;6216494;23;20005;-85
2022/05/28 07:45:48;;;;;;;2.97;1.40;;;;;;;14.37;52.82;102161.44;6214852;23;20063;-84
2022/05/28 07:48:15;;;;;;;7.07;1.80;;;;;;;14.54;54.91;102152.59;6215854;23;20005;-85
2022/05/28 07:50:43;;;;;;;3.03;1.58;;;;;;;14.81;54.04;102154.88;6215650;23;20448;-85
2022/05/28 07:53:09;;;;;;;2.85;1.42;;;;;;;15.08;53.11;102154.59;6214965;23;20317;-84
2022/05/28 07:55:39;;;;;;;5.93;1.60;;;;;;;15.35;50.28;102155.06;6216228;23;20075;-87
2022/05/28 08:00:37;;;;;;;3.67;1.50;;;;;;;15.63;51.72;102150.28;6213450;23;20485;-84
2022/05/28 08:03:27;;;;;;;5.05;1.65;;;;;;;15.65;47.08;102166.00;6215582;23;20442;-85
2022/05/28 08:05:56;;;;;;;5.63;1.33;;;;;;;15.59;50.92;102167.81;6215298;23;20425;-84
2022/05/28 08:11:13;;;;;;;3.67;1.27;;;;;;;15.69;52.90;102162.41;6215981;23;20008;-85
2022/05/28 08:13:41;;;;;;;6.55;1.70;;;;;;;15.24;51.06;102166.56;6215390;23;20365;-82
2022/05/28 08:16:06;;;;;;;2.78;1.50;;;;;;;14.99;51.88;102160.78;6214137;23;20377;-81
2022/05/28 08:18:39;;;;;;;4.00;1.20;;;;;;;14.97;51.99;102165.16;6210405;23;20004;-80
2022/05/28 08:23:51;;;;;;;2.88;1.40;;;;;;;15.27;50.18;102158.66;6212597;23;20034;-81
2022/05/28 08:26:20;;;;;;;6.85;1.75;;;;;;;15.02;49.94;102154.66;6212646;23;20011;-80
2022/05/28 08:28:48;;;;;;;3.28;1.52;;;;;;;14.77;48.73;102154.94;6212513;23;20005;-81
2022/05/28 08:31:14;;;;;;;4.13;1.52;;;;;;;14.87;50.79;102150.50;6213628;23;20013;-80
2022/05/28 08:33:39;;;;;;;2.88;1.30;;;;;;;15.13;49.67;102153.63;6213998;23;20013;-83
2022/05/28 08:36:08;;;;;;;7.43;1.60;;;;;;;15.14;48.91;102146.66;6214280;23;20009;-82
2022/05/28 08:38:34;;;;;;;3.53;1.40;;;;;;;15.21;48.42;102148.28;6214606;23;20004;-85
2022/05/28 08:41:16;;;;;;;3.28;1.23;;;;;;;15.42;47.49;102152.34;6215140;23;20015;-84
2022/05/28 08:44:12;;;;;;;2.38;1.20;;;;;;;15.86;47.80;102147.34;6211886;23;20015;-83
2022/05/28 08:46:38;;;;;;;2.90;1.67;;;;;;;16.06;47.88;102141.75;6215141;23;20032;-84
2022/05/28 08:49:08;;;;;;;3.93;1.20;;;;;;;15.92;48.00;102148.13;6214334;23;20299;-85
2022/05/28 08:51:44;;;;;;;6.22;1.48;;;;;;;15.71;47.76;102151.03;6215286;23;20410;-85
2022/05/28 08:54:19;;;;;;;5.88;1.67;;;;;;;15.37;49.20;102154.16;6215546;23;20004;-82
2022/05/28 08:56:46;;;;;;;3.08;1.10;;;;;;;15.23;50.94;102150.91;6213870;23;20029;-83
2022/05/28 08:59:19;;;;;;;;;;;;;;;15.11;51.61;102158.03;6215418;23;20062;-83
2022/05/28 09:01:44;;;;;;;4.25;1.30;;;;;;;15.09;51.98;102154.56;6214969;23;20276;-82
2022/05/28 09:04:16;;;;;;;1.30;1.00;;;;;;;15.15;52.57;102158.84;6214398;23;20036;-84
2022/05/28 09:06:46;;;;;;;1.67;0.82;;;;;;;15.24;53.06;102158.72;6214853;23;20043;-84
2022/05/28 09:09:13;;;;;;;2.33;1.15;;;;;;;15.44;53.48;102160.16;6214934;23;20004;-85
2022/05/28 09:11:48;;;;;;;2.35;1.25;;;;;;;15.74;48.53;102158.00;6213733;23;20004;-84
2022/05/28 09:14:37;;;;;;;5.28;1.33;;;;;;;15.69;50.13;102157.19;6214767;23;20031;-84
2022/05/28 09:17:03;;;;;;;3.47;1.33;;;;;;;15.85;50.42;102163.06;6214801;23;20024;-85
2022/05/28 09:19:37;;;;;;;4.07;1.50;;;;;;;15.88;47.88;102153.41;6213606;23;20015;-85
2022/05/28 09:22:02;;;;;;;7.50;1.40;;;;;;;15.74;49.74;102158.00;6214827;23;20005;-85
2022/05/28 09:24:30;;;;;;;3.10;1.07;;;;;;;15.99;49.21;102152.34;6213937;23;20035;-85
2022/05/28 09:27:04;;;;;;;3.42;1.27;;;;;;;16.38;45.77;102154.31;6214043;23;20013;-86
2022/05/28 09:29:55;;;;;;;4.82;1.55;;;;;;;16.46;44.59;102152.41;6214899;23;20043;-87
2022/05/28 09:32:40;;;;;;;5.03;1.42;;;;;;;16.51;41.09;102140.94;6213744;23;20091;-84
2022/05/28 09:35:21;;;;;;;3.50;1.30;;;;;;;16.70;43.24;102140.56;6214981;23;20456;-84
2022/05/28 09:38:02;;;;;;;4.68;1.40;;;;;;;16.97;40.84;102148.78;6214949;23;20337;-84
2022/05/28 09:40:42;;;;;;;3.42;1.33;;;;;;;16.91;43.15;102139.28;6213913;23;20082;-89
2022/05/28 09:43:38;;;;;;;6.35;1.45;;;;;;;16.89;42.73;102134.97;6213975;23;19996;-87
2022/05/28 09:46:36;;;;;;;4.32;1.60;;;;;;;16.50;42.41;102138.34;6208913;23;20040;-87
2022/05/28 09:49:14;;;;;;;4.18;1.45;;;;;;;16.23;44.38;102142.34;6211162;23;20004;-88
2022/05/28 09:51:59;;;;;;;2.80;1.25;;;;;;;16.14;46.64;102132.91;6214040;23;20382;-87
2022/05/28 09:54:43;;;;;;;1.25;0.82;;;;;;;16.12;46.50;102137.31;6213839;23;20088;-90
2022/05/28 09:57:10;;;;;;;1.75;1.00;;;;;;;16.53;47.67;102143.53;6215319;23;20016;-90
2022/05/28 09:59:45;;;;;;;6.30;1.48;;;;;;;16.79;45.60;102137.75;6214047;23;20001;-92
2022/05/28 10:02:17;;;;;;;3.97;1.40;;;;;;;16.88;46.97;102141.09;6217512;23;20083;-87
2022/05/28 10:04:55;;;;;;;4.25;1.40;;;;;;;17.01;45.65;102136.47;6216963;23;20005;-90
2022/05/28 10:07:27;;;;;;;6.10;1.67;;;;;;;16.86;43.87;102135.88;6217851;23;20005;-83
2022/05/28 10:09:53;;;;;;;6.75;1.45;;;;;;;16.81;42.85;102138.59;6216836;23;20103;-88
2022/05/28 10:12:29;;;;;;;4.37;1.30;;;;;;;16.93;45.99;102126.13;6217259;23;20028;-84
2022/05/28 10:15:04;;;;;;;6.78;1.92;;;;;;;17.10;44.93;102131.03;6215381;23;20004;-84
2022/05/28 10:17:32;;;;;;;3.53;1.47;;;;;;;17.33;44.73;102137.50;6216833;23;20008;-85
2022/05/28 10:20:04;;;;;;;5.32;1.50;;;;;;;17.29;42.13;102131.47;6217180;23;20005;-89
2022/05/28 10:22:30;;;;;;;5.75;1.60;;;;;;;16.62;43.06;102132.00;6218102;23;20004;-89
2022/05/28 10:25:02;;;;;;;4.47;1.50;;;;;;;16.46;43.18;102128.81;6216898;23;20079;-89
2022/05/28 10:27:48;;;;;;;2.75;1.30;;;;;;;16.79;41.96;102129.88;6217707;23;20000;-91
2022/05/28 10:30:42;;;;;;;2.78;1.10;;;;;;;17.13;42.26;102121.31;6217161;23;20070;-88
2022/05/28 10:33:15;;;;;;;4.30;1.23;;;;;;;17.09;41.64;102116.19;6217338;23;20008;-87
2022/05/28 10:38:21;;;;;;;5.20;1.38;;;;;;;16.72;40.55;102122.22;6208384;23;20103;-87
2022/05/28 10:41:17;;;;;;;2.70;1.00;;;;;;;17.16;41.28;102124.78;6216878;23;20008;-87
2022/05/28 10:43:46;;;;;;;3.00;1.08;;;;;;;17.36;38.30;102127.81;6216313;23;20417;-91
2022/05/28 10:46:13;;;;;;;2.20;1.13;;;;;;;17.01;40.05;102132.06;6217694;23;20024;-90
2022/05/28 10:49:18;;;;;;;8.77;1.63;;;;;;;16.29;39.74;102130.00;6217068;23;20001;-91
2022/05/28 10:51:49;;;;;;;3.40;1.20;;;;;;;16.37;41.50;102122.00;6217290;23;20001;-90
2022/05/28 10:54:49;;;;;;;1.90;1.17;;;;;;;16.90;42.07;102118.31;6216724;23;20015;-89
2022/05/28 10:57:42;;;;;;;4.40;1.30;;;;;;;17.10;42.78;102110.91;6216164;23;20062;-88
2022/05/28 11:00:15;;;;;;;4.35;1.17;;;;;;;17.41;42.38;102111.94;6216927;23;20369;-91
2022/05/28 11:03:15;;;;;;;4.90;1.52;;;;;;;17.05;38.34;102115.38;6214703;23;20023;-91
2022/05/28 11:06:05;;;;;;;6.57;1.50;;;;;;;16.93;39.46;102113.88;6217810;23;20005;-92
2022/05/28 11:11:33;;;;;;;3.40;1.30;;;;;;;17.05;39.15;102114.53;6215903;23;20021;-93
2022/05/28 11:14:29;;;;;;;3.85;1.38;;;;;;;17.02;40.74;102123.31;6216927;23;20059;-92
2022/05/28 11:17:12;;;;;;;2.63;1.25;;;;;;;17.26;40.99;102115.78;6216002;23;20031;-86
2022/05/28 11:19:58;;;;;;;4.53;1.30;;;;;;;17.40;39.48;102108.47;6215872;23;20011;-85
2022/05/28 11:22:48;;;;;;;2.50;1.40;;;;;;;17.74;41.43;102112.00;6215803;23;20005;-82
2022/05/28 11:25:39;;;;;;;3.63;1.30;;;;;;;18.15;37.35;102102.25;6214602;23;20001;-92
2022/05/28 11:28:14;;;;;;;3.38;1.20;;;;;;;18.30;40.14;102105.34;6216884;23;20432;-91
2022/05/28 11:30:43;;;;;;;4.47;1.25;;;;;;;18.21;39.28;102103.84;6215720;23;20068;-92
2022/05/28 11:33:16;;;;;;;3.72;1.50;;;;;;;18.21;36.46;102098.59;6217571;23;20004;-92
2022/05/28 11:35:55;;;;;;;6.35;1.58;;;;;;;18.34;36.71;102096.47;6216852;23;20084;-89
2022/05/28 11:38:34;;;;;;;5.32;1.02;;;;;;;18.54;37.46;102088.03;6215034;23;20005;-85
2022/05/28 11:41:10;;;;;;;5.57;1.30;;;;;;;18.53;34.93;102097.66;6215931;23;20338;-89
2022/05/28 11:43:42;;;;;;;2.35;1.08;;;;;;;18.36;37.31;102087.63;6215927;23;20005;-88
2022/05/28 11:46:27;;;;;;;3.17;1.27;;;;;;;18.52;38.13;102077.53;6215933;23;20322;-86
2022/05/28 11:52:22;;;;;;;4.45;1.45;;;;;;;19.06;35.98;102083.00;6214549;23;20096;-86
2022/05/28 11:54:54;;;;;;;1.70;1.10;;;;;;;19.38;37.14;102080.22;6215434;23;20088;-84
2022/05/28 11:57:28;;;;;;;4.13;1.52;;;;;;;19.42;35.36;102082.69;6214971;23;20001;-88
2022/05/28 11:59:56;;;;;;;2.95;1.30;;;;;;;19.18;37.18;102073.00;6214371;23;20009;-86